sensor_id;sensor_type;location;lat;lon;timestamp;temperature;humidity
72126;SHT31;59999;51.676;22.650;2022-10-18T00:01:49;12.32;87.37
72126;SHT31;59999;51.676;22.650;2022-10-18T00:04:15;12.28;87.46
72126;SHT31;59999;51.676;22.650;2022-10-18T00:06:41;12.25;87.39
72126;SHT31;59999;51.676;22.650;2022-10-18T00:09:07;12.24;87.52
72126;SHT31;59999;51.676;22.650;2022-10-18T00:11:33;12.21;87.61
72126;SHT31;59999;51.676;22.650;2022-10-18T00:13:59;12.22;87.94
72126;SHT31;59999;51.676;22.650;2022-10-18T00:16:25;12.21;87.78
72126;SHT31;59999;51.676;22.650;2022-10-18T00:18:51;12.22;87.72
72126;SHT31;59999;51.676;22.650;2022-10-18T00:21:19;12.18;87.69
72126;SHT31;59999;51.676;22.650;2022-10-18T00:23:47;12.14;87.72
72126;SHT31;59999;51.676;22.650;2022-10-18T00:26:16;12.15;87.90
72126;SHT31;59999;51.676;22.650;2022-10-18T00:28:43;12.10;88.20
72126;SHT31;59999;51.676;22.650;2022-10-18T00:33:45;12.11;88.10
72126;SHT31;59999;51.676;22.650;2022-10-18T00:36:12;12.12;87.88
72126;SHT31;59999;51.676;22.650;2022-10-18T00:38:39;12.08;87.86
72126;SHT31;59999;51.676;22.650;2022-10-18T00:41:07;12.04;87.90
72126;SHT31;59999;51.676;22.650;2022-10-18T00:43:52;12.02;88.24
72126;SHT31;59999;51.676;22.650;2022-10-18T00:46:19;12.04;88.40
72126;SHT31;59999;51.676;22.650;2022-10-18T00:48:45;12.08;88.45
72126;SHT31;59999;51.676;22.650;2022-10-18T00:51:11;12.08;87.87
72126;SHT31;59999;51.676;22.650;2022-10-18T00:53:38;12.06;87.85
72126;SHT31;59999;51.676;22.650;2022-10-18T00:56:05;12.05;87.69
72126;SHT31;59999;51.676;22.650;2022-10-18T00:58:31;12.11;87.83
72126;SHT31;59999;51.676;22.650;2022-10-18T01:00:57;12.10;87.63
72126;SHT31;59999;51.676;22.650;2022-10-18T01:03:23;12.10;87.54
72126;SHT31;59999;51.676;22.650;2022-10-18T01:05:49;12.05;87.55
72126;SHT31;59999;51.676;22.650;2022-10-18T01:11:37;11.95;87.48
72126;SHT31;59999;51.676;22.650;2022-10-18T01:14:30;11.98;88.20
72126;SHT31;59999;51.676;22.650;2022-10-18T01:17:06;11.97;88.17
72126;SHT31;59999;51.676;22.650;2022-10-18T01:19:44;11.99;87.78
72126;SHT31;59999;51.676;22.650;2022-10-18T01:22:24;11.95;87.52
72126;SHT31;59999;51.676;22.650;2022-10-18T01:28:19;11.95;88.04
72126;SHT31;59999;51.676;22.650;2022-10-18T01:30:54;11.95;87.74
72126;SHT31;59999;51.676;22.650;2022-10-18T01:33:40;11.88;87.61
72126;SHT31;59999;51.676;22.650;2022-10-18T01:36:20;11.93;87.77
72126;SHT31;59999;51.676;22.650;2022-10-18T01:38:51;11.93;88.02
72126;SHT31;59999;51.676;22.650;2022-10-18T01:41:21;11.99;87.65
72126;SHT31;59999;51.676;22.650;2022-10-18T01:43:50;12.06;87.46
72126;SHT31;59999;51.676;22.650;2022-10-18T01:46:21;12.06;87.24
72126;SHT31;59999;51.676;22.650;2022-10-18T01:48:48;12.08;87.50
72126;SHT31;59999;51.676;22.650;2022-10-18T01:51:38;12.11;87.29
72126;SHT31;59999;51.676;22.650;2022-10-18T01:54:03;12.12;87.34
72126;SHT31;59999;51.676;22.650;2022-10-18T01:59:27;12.12;86.94
72126;SHT31;59999;51.676;22.650;2022-10-18T02:02:08;12.17;86.83
72126;SHT31;59999;51.676;22.650;2022-10-18T02:07:28;12.14;86.94
72126;SHT31;59999;51.676;22.650;2022-10-18T02:10:06;12.20;86.84
72126;SHT31;59999;51.676;22.650;2022-10-18T02:12:33;12.18;86.74
72126;SHT31;59999;51.676;22.650;2022-10-18T02:15:01;12.18;86.65
72126;SHT31;59999;51.676;22.650;2022-10-18T02:17:31;12.12;86.54
72126;SHT31;59999;51.676;22.650;2022-10-18T02:19:57;12.08;86.70
72126;SHT31;59999;51.676;22.650;2022-10-18T02:22:26;11.99;86.85
72126;SHT31;59999;51.676;22.650;2022-10-18T02:24:54;11.93;87.09
72126;SHT31;59999;51.676;22.650;2022-10-18T02:27:21;11.93;87.33
72126;SHT31;59999;51.676;22.650;2022-10-18T02:29:48;11.90;87.33
72126;SHT31;59999;51.676;22.650;2022-10-18T02:32:33;11.94;87.57
72126;SHT31;59999;51.676;22.650;2022-10-18T02:35:19;11.91;87.50
72126;SHT31;59999;51.676;22.650;2022-10-18T02:37:48;11.91;87.40
72126;SHT31;59999;51.676;22.650;2022-10-18T02:40:14;11.94;87.30
72126;SHT31;59999;51.676;22.650;2022-10-18T02:42:49;11.95;87.34
72126;SHT31;59999;51.676;22.650;2022-10-18T02:45:15;11.99;87.28
72126;SHT31;59999;51.676;22.650;2022-10-18T02:47:41;12.05;86.94
72126;SHT31;59999;51.676;22.650;2022-10-18T02:50:08;12.06;86.92
72126;SHT31;59999;51.676;22.650;2022-10-18T02:52:34;12.06;86.81
72126;SHT31;59999;51.676;22.650;2022-10-18T02:55:00;12.08;86.86
72126;SHT31;59999;51.676;22.650;2022-10-18T02:57:26;12.05;86.81
72126;SHT31;59999;51.676;22.650;2022-10-18T02:59:52;12.06;86.85
72126;SHT31;59999;51.676;22.650;2022-10-18T03:02:18;12.08;86.75
72126;SHT31;59999;51.676;22.650;2022-10-18T03:04:44;12.10;86.37
72126;SHT31;59999;51.676;22.650;2022-10-18T03:07:10;12.06;86.48
72126;SHT31;59999;51.676;22.650;2022-10-18T03:09:36;12.05;86.53
72126;SHT31;59999;51.676;22.650;2022-10-18T03:12:02;12.04;86.57
72126;SHT31;59999;51.676;22.650;2022-10-18T03:14:28;12.04;86.57
72126;SHT31;59999;51.676;22.650;2022-10-18T03:16:54;12.02;86.46
72126;SHT31;59999;51.676;22.650;2022-10-18T03:19:20;11.97;86.58
72126;SHT31;59999;51.676;22.650;2022-10-18T03:21:46;11.93;86.70
72126;SHT31;59999;51.676;22.650;2022-10-18T03:24:12;11.88;86.93
72126;SHT31;59999;51.676;22.650;2022-10-18T03:26:38;11.85;87.12
72126;SHT31;59999;51.676;22.650;2022-10-18T03:29:04;11.81;87.12
72126;SHT31;59999;51.676;22.650;2022-10-18T03:31:30;11.83;87.20
72126;SHT31;59999;51.676;22.650;2022-10-18T03:33:56;11.83;87.21
72126;SHT31;59999;51.676;22.650;2022-10-18T03:36:23;11.83;87.19
72126;SHT31;59999;51.676;22.650;2022-10-18T03:38:48;11.78;86.99
72126;SHT31;59999;51.676;22.650;2022-10-18T03:41:15;11.81;87.25
72126;SHT31;59999;51.676;22.650;2022-10-18T03:43:40;11.78;87.16
72126;SHT31;59999;51.676;22.650;2022-10-18T03:46:06;11.77;87.22
72126;SHT31;59999;51.676;22.650;2022-10-18T03:48:32;11.71;87.24
72126;SHT31;59999;51.676;22.650;2022-10-18T03:50:58;11.71;87.22
72126;SHT31;59999;51.676;22.650;2022-10-18T03:53:24;11.69;87.19
72126;SHT31;59999;51.676;22.650;2022-10-18T03:55:52;11.63;87.52
72126;SHT31;59999;51.676;22.650;2022-10-18T03:58:18;11.60;87.51
72126;SHT31;59999;51.676;22.650;2022-10-18T04:00:44;11.59;87.62
72126;SHT31;59999;51.676;22.650;2022-10-18T04:03:10;11.52;88.08
72126;SHT31;59999;51.676;22.650;2022-10-18T04:05:36;11.54;88.04
72126;SHT31;59999;51.676;22.650;2022-10-18T04:08:02;11.57;88.14
72126;SHT31;59999;51.676;22.650;2022-10-18T04:10:28;11.60;87.88
72126;SHT31;59999;51.676;22.650;2022-10-18T04:12:54;11.59;87.69
72126;SHT31;59999;51.676;22.650;2022-10-18T04:15:20;11.62;87.67
72126;SHT31;59999;51.676;22.650;2022-10-18T04:17:46;11.60;87.71
72126;SHT31;59999;51.676;22.650;2022-10-18T04:20:12;11.63;87.53
72126;SHT31;59999;51.676;22.650;2022-10-18T04:22:38;11.67;87.44
72126;SHT31;59999;51.676;22.650;2022-10-18T04:25:04;11.70;87.30
72126;SHT31;59999;51.676;22.650;2022-10-18T04:27:30;11.71;87.29
72126;SHT31;59999;51.676;22.650;2022-10-18T04:29:56;11.70;87.39
72126;SHT31;59999;51.676;22.650;2022-10-18T04:32:22;11.69;87.27
72126;SHT31;59999;51.676;22.650;2022-10-18T04:34:48;11.69;87.26
72126;SHT31;59999;51.676;22.650;2022-10-18T04:37:14;11.74;86.98
72126;SHT31;59999;51.676;22.650;2022-10-18T04:39:40;11.77;86.93
72126;SHT31;59999;51.676;22.650;2022-10-18T04:42:11;11.78;86.88
72126;SHT31;59999;51.676;22.650;2022-10-18T04:44:37;11.75;86.92
72126;SHT31;59999;51.676;22.650;2022-10-18T04:47:03;11.75;86.70
72126;SHT31;59999;51.676;22.650;2022-10-18T04:49:29;11.77;86.74
72126;SHT31;59999;51.676;22.650;2022-10-18T04:51:55;11.81;86.77
72126;SHT31;59999;51.676;22.650;2022-10-18T04:54:21;11.84;86.63
72126;SHT31;59999;51.676;22.650;2022-10-18T04:56:47;11.84;86.48
72126;SHT31;59999;51.676;22.650;2022-10-18T04:59:13;11.81;86.67
72126;SHT31;59999;51.676;22.650;2022-10-18T05:01:39;11.81;86.67
72126;SHT31;59999;51.676;22.650;2022-10-18T05:04:05;11.84;86.47
72126;SHT31;59999;51.676;22.650;2022-10-18T05:06:30;11.85;86.49
72126;SHT31;59999;51.676;22.650;2022-10-18T05:08:56;11.88;86.41
72126;SHT31;59999;51.676;22.650;2022-10-18T05:11:22;11.88;86.19
72126;SHT31;59999;51.676;22.650;2022-10-18T05:13:48;11.91;86.06
72126;SHT31;59999;51.676;22.650;2022-10-18T05:16:14;11.93;86.11
72126;SHT31;59999;51.676;22.650;2022-10-18T05:18:40;11.94;85.86
72126;SHT31;59999;51.676;22.650;2022-10-18T05:21:07;12.02;85.89
72126;SHT31;59999;51.676;22.650;2022-10-18T05:23:34;12.06;85.55
72126;SHT31;59999;51.676;22.650;2022-10-18T05:26:01;12.08;85.65
72126;SHT31;59999;51.676;22.650;2022-10-18T05:28:28;12.08;85.69
72126;SHT31;59999;51.676;22.650;2022-10-18T05:30:54;12.15;85.26
72126;SHT31;59999;51.676;22.650;2022-10-18T05:33:20;12.25;85.02
72126;SHT31;59999;51.676;22.650;2022-10-18T05:35:45;12.29;85.04
72126;SHT31;59999;51.676;22.650;2022-10-18T05:38:12;12.31;84.86
72126;SHT31;59999;51.676;22.650;2022-10-18T05:40:38;12.36;84.77
72126;SHT31;59999;51.676;22.650;2022-10-18T05:43:04;12.50;84.19
72126;SHT31;59999;51.676;22.650;2022-10-18T05:45:30;12.56;84.00
72126;SHT31;59999;51.676;22.650;2022-10-18T05:47:56;12.60;83.91
72126;SHT31;59999;51.676;22.650;2022-10-18T05:50:22;12.66;83.55
72126;SHT31;59999;51.676;22.650;2022-10-18T05:52:48;12.73;83.25
72126;SHT31;59999;51.676;22.650;2022-10-18T05:55:13;12.81;82.87
72126;SHT31;59999;51.676;22.650;2022-10-18T05:57:40;12.89;82.81
72126;SHT31;59999;51.676;22.650;2022-10-18T06:00:06;12.91;82.47
72126;SHT31;59999;51.676;22.650;2022-10-18T06:02:32;12.94;82.59
72126;SHT31;59999;51.676;22.650;2022-10-18T06:04:58;13.00;82.63
72126;SHT31;59999;51.676;22.650;2022-10-18T06:07:24;13.03;81.91
72126;SHT31;59999;51.676;22.650;2022-10-18T06:09:50;13.08;81.95
72126;SHT31;59999;51.676;22.650;2022-10-18T06:12:16;13.11;81.64
72126;SHT31;59999;51.676;22.650;2022-10-18T06:14:42;13.17;81.49
72126;SHT31;59999;51.676;22.650;2022-10-18T06:17:09;13.21;81.53
72126;SHT31;59999;51.676;22.650;2022-10-18T06:19:35;13.25;81.46
72126;SHT31;59999;51.676;22.650;2022-10-18T06:22:01;13.32;81.17
72126;SHT31;59999;51.676;22.650;2022-10-18T06:24:26;13.31;81.27
72126;SHT31;59999;51.676;22.650;2022-10-18T06:26:53;13.41;81.01
72126;SHT31;59999;51.676;22.650;2022-10-18T06:29:19;13.49;80.23
72126;SHT31;59999;51.676;22.650;2022-10-18T06:31:45;13.58;80.49
72126;SHT31;59999;51.676;22.650;2022-10-18T06:34:11;13.61;79.69
72126;SHT31;59999;51.676;22.650;2022-10-18T06:36:37;13.69;79.75
72126;SHT31;59999;51.676;22.650;2022-10-18T06:39:02;13.70;80.00
72126;SHT31;59999;51.676;22.650;2022-10-18T06:41:29;13.75;79.97
72126;SHT31;59999;51.676;22.650;2022-10-18T06:43:54;13.79;79.14
72126;SHT31;59999;51.676;22.650;2022-10-18T06:46:23;13.83;79.44
72126;SHT31;59999;51.676;22.650;2022-10-18T06:48:49;13.87;79.04
72126;SHT31;59999;51.676;22.650;2022-10-18T06:51:15;13.93;78.38
72126;SHT31;59999;51.676;22.650;2022-10-18T06:53:41;13.99;78.07
72126;SHT31;59999;51.676;22.650;2022-10-18T06:56:10;14.10;78.43
72126;SHT31;59999;51.676;22.650;2022-10-18T06:58:36;14.17;78.41
72126;SHT31;59999;51.676;22.650;2022-10-18T07:01:10;14.24;77.76
72126;SHT31;59999;51.676;22.650;2022-10-18T07:03:37;14.35;77.42
72126;SHT31;59999;51.676;22.650;2022-10-18T07:06:05;14.40;77.56
72126;SHT31;59999;51.676;22.650;2022-10-18T07:08:32;14.51;77.39
72126;SHT31;59999;51.676;22.650;2022-10-18T07:10:58;14.60;76.38
72126;SHT31;59999;51.676;22.650;2022-10-18T07:13:27;14.64;76.06
72126;SHT31;59999;51.676;22.650;2022-10-18T07:16:07;14.69;75.61
72126;SHT31;59999;51.676;22.650;2022-10-18T07:18:35;14.72;75.45
72126;SHT31;59999;51.676;22.650;2022-10-18T07:21:11;14.75;75.14
72126;SHT31;59999;51.676;22.650;2022-10-18T07:23:40;14.84;75.12
72126;SHT31;59999;51.676;22.650;2022-10-18T07:26:12;14.86;75.43
72126;SHT31;59999;51.676;22.650;2022-10-18T07:28:38;14.89;74.80
72126;SHT31;59999;51.676;22.650;2022-10-18T07:31:06;14.91;74.85
72126;SHT31;59999;51.676;22.650;2022-10-18T07:33:34;14.89;74.93
72126;SHT31;59999;51.676;22.650;2022-10-18T07:36:01;14.91;74.66
72126;SHT31;59999;51.676;22.650;2022-10-18T07:38:28;14.89;74.82
72126;SHT31;59999;51.676;22.650;2022-10-18T07:40:58;14.93;74.72
72126;SHT31;59999;51.676;22.650;2022-10-18T07:43:25;14.96;74.20
72126;SHT31;59999;51.676;22.650;2022-10-18T07:45:53;15.00;73.91
72126;SHT31;59999;51.676;22.650;2022-10-18T07:48:19;15.13;73.56
72126;SHT31;59999;51.676;22.650;2022-10-18T07:50:45;15.22;73.36
72126;SHT31;59999;51.676;22.650;2022-10-18T07:53:11;15.34;73.04
72126;SHT31;59999;51.676;22.650;2022-10-18T07:55:37;15.43;71.33
72126;SHT31;59999;51.676;22.650;2022-10-18T07:58:03;15.43;71.55
72126;SHT31;59999;51.676;22.650;2022-10-18T08:00:29;15.49;71.27
72126;SHT31;59999;51.676;22.650;2022-10-18T08:02:56;15.58;70.44
72126;SHT31;59999;51.676;22.650;2022-10-18T08:05:22;15.62;69.98
72126;SHT31;59999;51.676;22.650;2022-10-18T08:07:48;15.68;70.04
72126;SHT31;59999;51.676;22.650;2022-10-18T08:10:14;15.77;69.71
72126;SHT31;59999;51.676;22.650;2022-10-18T08:12:40;15.80;69.34
72126;SHT31;59999;51.676;22.650;2022-10-18T08:15:07;15.85;69.30
72126;SHT31;59999;51.676;22.650;2022-10-18T08:17:33;15.92;68.85
72126;SHT31;59999;51.676;22.650;2022-10-18T08:19:59;15.99;68.56
72126;SHT31;59999;51.676;22.650;2022-10-18T08:22:25;15.99;68.74
72126;SHT31;59999;51.676;22.650;2022-10-18T08:24:51;16.04;68.47
72126;SHT31;59999;51.676;22.650;2022-10-18T08:27:17;16.09;68.62
72126;SHT31;59999;51.676;22.650;2022-10-18T08:29:43;16.15;67.81
72126;SHT31;59999;51.676;22.650;2022-10-18T08:32:09;16.23;68.20
72126;SHT31;59999;51.676;22.650;2022-10-18T08:34:35;16.33;67.62
72126;SHT31;59999;51.676;22.650;2022-10-18T08:37:01;16.43;66.63
72126;SHT31;59999;51.676;22.650;2022-10-18T08:39:28;16.43;66.72
72126;SHT31;59999;51.676;22.650;2022-10-18T08:44:47;16.52;66.95
72126;SHT31;59999;51.676;22.650;2022-10-18T08:47:22;16.64;67.00
72126;SHT31;59999;51.676;22.650;2022-10-18T08:50:04;16.73;67.10
72126;SHT31;59999;51.676;22.650;2022-10-18T08:52:42;16.77;66.93
72126;SHT31;59999;51.676;22.650;2022-10-18T08:57:48;16.83;66.06
72126;SHT31;59999;51.676;22.650;2022-10-18T09:00:17;16.89;66.05
72126;SHT31;59999;51.676;22.650;2022-10-18T09:05:49;17.19;66.41
72126;SHT31;59999;51.676;22.650;2022-10-18T09:14:20;17.50;65.88
72126;SHT31;59999;51.676;22.650;2022-10-18T09:22:24;17.66;65.90
72126;SHT31;59999;51.676;22.650;2022-10-18T09:25:57;17.67;64.74
72126;SHT31;59999;51.676;22.650;2022-10-18T09:28:24;17.73;65.34
72126;SHT31;59999;51.676;22.650;2022-10-18T09:31:24;17.79;65.27
72126;SHT31;59999;51.676;22.650;2022-10-18T09:34:03;17.84;64.54
72126;SHT31;59999;51.676;22.650;2022-10-18T09:36:32;17.79;64.34
72126;SHT31;59999;51.676;22.650;2022-10-18T09:41:42;17.66;64.50
72126;SHT31;59999;51.676;22.650;2022-10-18T09:44:33;17.57;65.06
72126;SHT31;59999;51.676;22.650;2022-10-18T09:47:13;17.61;65.58
72126;SHT31;59999;51.676;22.650;2022-10-18T09:49:47;17.62;64.77
72126;SHT31;59999;51.676;22.650;2022-10-18T09:52:23;17.62;64.75
72126;SHT31;59999;51.676;22.650;2022-10-18T09:54:55;17.63;65.20
72126;SHT31;59999;51.676;22.650;2022-10-18T09:57:47;17.69;64.37
72126;SHT31;59999;51.676;22.650;2022-10-18T10:00:21;17.70;64.59
72126;SHT31;59999;51.676;22.650;2022-10-18T10:02:48;17.76;64.10
72126;SHT31;59999;51.676;22.650;2022-10-18T10:05:15;17.74;64.26
72126;SHT31;59999;51.676;22.650;2022-10-18T10:07:43;17.80;63.87
72126;SHT31;59999;51.676;22.650;2022-10-18T10:10:18;17.87;63.75
72126;SHT31;59999;51.676;22.650;2022-10-18T10:12:45;17.90;63.59
72126;SHT31;59999;51.676;22.650;2022-10-18T10:15:22;18.00;63.50
72126;SHT31;59999;51.676;22.650;2022-10-18T10:25:58;18.21;63.42
72126;SHT31;59999;51.676;22.650;2022-10-18T10:28:29;18.34;62.13
72126;SHT31;59999;51.676;22.650;2022-10-18T10:31:31;18.45;61.76
72126;SHT31;59999;51.676;22.650;2022-10-18T10:34:02;18.58;61.66
72126;SHT31;59999;51.676;22.650;2022-10-18T10:36:30;18.68;60.86
72126;SHT31;59999;51.676;22.650;2022-10-18T10:39:16;18.69;62.03
72126;SHT31;59999;51.676;22.650;2022-10-18T10:41:48;18.89;62.01
72126;SHT31;59999;51.676;22.650;2022-10-18T10:44:17;18.96;59.99
72126;SHT31;59999;51.676;22.650;2022-10-18T10:46:44;19.03;59.30
72126;SHT31;59999;51.676;22.650;2022-10-18T10:49:22;19.14;59.21
72126;SHT31;59999;51.676;22.650;2022-10-18T10:51:57;19.13;58.43
72126;SHT31;59999;51.676;22.650;2022-10-18T10:54:25;19.13;59.40
72126;SHT31;59999;51.676;22.650;2022-10-18T10:57:04;19.19;58.95
72126;SHT31;59999;51.676;22.650;2022-10-18T10:59:55;19.32;59.85
72126;SHT31;59999;51.676;22.650;2022-10-18T11:02:32;19.47;59.41
72126;SHT31;59999;51.676;22.650;2022-10-18T11:05:22;19.54;58.52
72126;SHT31;59999;51.676;22.650;2022-10-18T11:07:53;19.69;60.92
72126;SHT31;59999;51.676;22.650;2022-10-18T11:10:23;19.77;59.02
72126;SHT31;59999;51.676;22.650;2022-10-18T11:13:04;19.78;59.37
72126;SHT31;59999;51.676;22.650;2022-10-18T11:15:44;19.86;60.29
72126;SHT31;59999;51.676;22.650;2022-10-18T11:23:32;19.99;59.14
72126;SHT31;59999;51.676;22.650;2022-10-18T11:50:13;20.08;60.18
72126;SHT31;59999;51.676;22.650;2022-10-18T11:55:40;20.19;60.30
72126;SHT31;59999;51.676;22.650;2022-10-18T12:04:07;20.26;59.15
72126;SHT31;59999;51.676;22.650;2022-10-18T12:06:38;20.25;59.06
72126;SHT31;59999;51.676;22.650;2022-10-18T12:09:50;20.23;58.99
72126;SHT31;59999;51.676;22.650;2022-10-18T12:12:17;20.17;58.85
72126;SHT31;59999;51.676;22.650;2022-10-18T12:14:51;20.16;59.86
72126;SHT31;59999;51.676;22.650;2022-10-18T12:17:35;20.17;60.04
72126;SHT31;59999;51.676;22.650;2022-10-18T12:20:09;20.15;59.44
72126;SHT31;59999;51.676;22.650;2022-10-18T12:22:41;20.09;58.22
72126;SHT31;59999;51.676;22.650;2022-10-18T12:25:12;20.05;58.18
72126;SHT31;59999;51.676;22.650;2022-10-18T12:27:43;19.99;58.35
72126;SHT31;59999;51.676;22.650;2022-10-18T12:30:28;20.00;58.51
72126;SHT31;59999;51.676;22.650;2022-10-18T12:33:08;20.08;58.34
72126;SHT31;59999;51.676;22.650;2022-10-18T12:35:57;20.12;57.73
72126;SHT31;59999;51.676;22.650;2022-10-18T12:38:29;20.17;57.97
72126;SHT31;59999;51.676;22.650;2022-10-18T12:40:56;20.25;58.22
72126;SHT31;59999;51.676;22.650;2022-10-18T12:43:25;20.26;57.27
72126;SHT31;59999;51.676;22.650;2022-10-18T12:45:55;20.27;57.21
72126;SHT31;59999;51.676;22.650;2022-10-18T12:48:36;20.29;57.51
72126;SHT31;59999;51.676;22.650;2022-10-18T12:51:15;20.39;57.90
72126;SHT31;59999;51.676;22.650;2022-10-18T12:53:47;20.40;56.64
72126;SHT31;59999;51.676;22.650;2022-10-18T13:10:31;20.22;57.63
72126;SHT31;59999;51.676;22.650;2022-10-18T13:15:02;20.20;59.06
72126;SHT31;59999;51.676;22.650;2022-10-18T13:17:50;20.26;57.98
72126;SHT31;59999;51.676;22.650;2022-10-18T13:20:37;20.32;57.99
72126;SHT31;59999;51.676;22.650;2022-10-18T13:23:12;20.33;56.80
72126;SHT31;59999;51.676;22.650;2022-10-18T13:28:36;20.39;57.26
72126;SHT31;59999;51.676;22.650;2022-10-18T13:34:22;20.41;56.66
72126;SHT31;59999;51.676;22.650;2022-10-18T13:37:04;20.37;56.33
72126;SHT31;59999;51.676;22.650;2022-10-18T13:39:31;20.33;56.73
72126;SHT31;59999;51.676;22.650;2022-10-18T13:44:28;20.16;57.23
72126;SHT31;59999;51.676;22.650;2022-10-18T14:05:56;19.59;58.71
72126;SHT31;59999;51.676;22.650;2022-10-18T14:08:46;19.50;59.26
72126;SHT31;59999;51.676;22.650;2022-10-18T14:11:29;19.41;59.64
72126;SHT31;59999;51.676;22.650;2022-10-18T14:14:19;19.31;60.46
72126;SHT31;59999;51.676;22.650;2022-10-18T14:19:35;19.10;60.63
72126;SHT31;59999;51.676;22.650;2022-10-18T14:22:10;19.09;60.76
72126;SHT31;59999;51.676;22.650;2022-10-18T14:24:42;19.03;61.08
72126;SHT31;59999;51.676;22.650;2022-10-18T14:29:40;18.90;63.05
72126;SHT31;59999;51.676;22.650;2022-10-18T14:32:29;18.82;63.41
72126;SHT31;59999;51.676;22.650;2022-10-18T14:34:57;18.71;63.86
72126;SHT31;59999;51.676;22.650;2022-10-18T14:37:29;18.58;64.72
72126;SHT31;59999;51.676;22.650;2022-10-18T14:39:56;18.49;64.95
72126;SHT31;59999;51.676;22.650;2022-10-18T14:42:24;18.32;65.82
72126;SHT31;59999;51.676;22.650;2022-10-18T14:44:51;18.23;66.09
72126;SHT31;59999;51.676;22.650;2022-10-18T14:47:22;18.13;66.30
72126;SHT31;59999;51.676;22.650;2022-10-18T14:49:49;18.10;66.92
72126;SHT31;59999;51.676;22.650;2022-10-18T14:52:25;18.04;66.94
72126;SHT31;59999;51.676;22.650;2022-10-18T14:54:55;18.00;67.03
72126;SHT31;59999;51.676;22.650;2022-10-18T14:57:29;17.97;66.93
72126;SHT31;59999;51.676;22.650;2022-10-18T15:00:07;17.91;67.05
72126;SHT31;59999;51.676;22.650;2022-10-18T15:02:37;17.86;67.29
72126;SHT31;59999;51.676;22.650;2022-10-18T15:05:18;17.77;67.88
72126;SHT31;59999;51.676;22.650;2022-10-18T15:07:46;17.70;68.27
72126;SHT31;59999;51.676;22.650;2022-10-18T15:10:18;17.56;68.66
72126;SHT31;59999;51.676;22.650;2022-10-18T15:12:45;17.43;69.01
72126;SHT31;59999;51.676;22.650;2022-10-18T15:15:24;17.32;69.51
72126;SHT31;59999;51.676;22.650;2022-10-18T15:17:52;17.21;69.58
72126;SHT31;59999;51.676;22.650;2022-10-18T15:22:52;17.00;69.97
72126;SHT31;59999;51.676;22.650;2022-10-18T15:25:28;16.91;70.48
72126;SHT31;59999;51.676;22.650;2022-10-18T15:28:00;16.74;70.67
72126;SHT31;59999;51.676;22.650;2022-10-18T15:30:37;16.60;70.96
72126;SHT31;59999;51.676;22.650;2022-10-18T15:33:06;16.47;71.49
72126;SHT31;59999;51.676;22.650;2022-10-18T15:35:37;16.33;72.01
72126;SHT31;59999;51.676;22.650;2022-10-18T15:38:35;16.23;71.79
72126;SHT31;59999;51.676;22.650;2022-10-18T15:44:17;16.12;71.99
72126;SHT31;59999;51.676;22.650;2022-10-18T15:46:45;16.02;72.66
72126;SHT31;59999;51.676;22.650;2022-10-18T15:52:33;15.72;73.68
72126;SHT31;59999;51.676;22.650;2022-10-18T15:55:00;15.60;74.11
72126;SHT31;59999;51.676;22.650;2022-10-18T15:57:28;15.51;74.28
72126;SHT31;59999;51.676;22.650;2022-10-18T16:00:03;15.43;74.67
72126;SHT31;59999;51.676;22.650;2022-10-18T16:02:30;15.34;74.92
72126;SHT31;59999;51.676;22.650;2022-10-18T16:05:00;15.23;75.06
72126;SHT31;59999;51.676;22.650;2022-10-18T16:07:27;15.19;75.21
72126;SHT31;59999;51.676;22.650;2022-10-18T16:09:53;15.07;75.57
72126;SHT31;59999;51.676;22.650;2022-10-18T16:12:19;14.98;76.01
72126;SHT31;59999;51.676;22.650;2022-10-18T16:14:45;14.85;76.50
72126;SHT31;59999;51.676;22.650;2022-10-18T16:37:08;14.61;76.76
72126;SHT31;59999;51.676;22.650;2022-10-18T16:39:34;14.63;76.52
72126;SHT31;59999;51.676;22.650;2022-10-18T16:42:00;14.69;76.25
72126;SHT31;59999;51.676;22.650;2022-10-18T16:44:26;14.78;75.90
72126;SHT31;59999;51.676;22.650;2022-10-18T16:46:52;14.88;75.55
72126;SHT31;59999;51.676;22.650;2022-10-18T16:49:20;14.98;75.16
72126;SHT31;59999;51.676;22.650;2022-10-18T16:51:48;15.07;74.77
72126;SHT31;59999;51.676;22.650;2022-10-18T16:54:15;15.14;74.62
72126;SHT31;59999;51.676;22.650;2022-10-18T16:56:40;15.14;74.53
72126;SHT31;59999;51.676;22.650;2022-10-18T16:59:23;15.09;74.71
72126;SHT31;59999;51.676;22.650;2022-10-18T17:01:49;15.03;75.06
72126;SHT31;59999;51.676;22.650;2022-10-18T17:04:15;15.02;75.28
72126;SHT31;59999;51.676;22.650;2022-10-18T17:06:41;14.99;75.28
72126;SHT31;59999;51.676;22.650;2022-10-18T17:09:08;14.96;75.40
72126;SHT31;59999;51.676;22.650;2022-10-18T17:11:33;14.93;75.57
72126;SHT31;59999;51.676;22.650;2022-10-18T17:13:59;14.95;75.37
72126;SHT31;59999;51.676;22.650;2022-10-18T17:16:29;14.99;75.22
72126;SHT31;59999;51.676;22.650;2022-10-18T17:18:57;15.06;75.08
72126;SHT31;59999;51.676;22.650;2022-10-18T17:21:25;15.14;74.69
72126;SHT31;59999;51.676;22.650;2022-10-18T17:23:52;15.23;74.51
72126;SHT31;59999;51.676;22.650;2022-10-18T17:26:20;15.32;74.23
72126;SHT31;59999;51.676;22.650;2022-10-18T17:28:50;15.37;74.00
72126;SHT31;59999;51.676;22.650;2022-10-18T17:31:16;15.40;74.01
72126;SHT31;59999;51.676;22.650;2022-10-18T17:33:42;15.41;73.89
72126;SHT31;59999;51.676;22.650;2022-10-18T17:36:08;15.44;73.93
72126;SHT31;59999;51.676;22.650;2022-10-18T17:38:34;15.41;74.03
72126;SHT31;59999;51.676;22.650;2022-10-18T17:41:08;15.36;74.86
72126;SHT31;59999;51.676;22.650;2022-10-18T17:43:36;15.29;75.19
72126;SHT31;59999;51.676;22.650;2022-10-18T17:46:02;15.19;75.53
72126;SHT31;59999;51.676;22.650;2022-10-18T17:48:29;15.13;75.70
72126;SHT31;59999;51.676;22.650;2022-10-18T17:50:55;15.09;75.66
72126;SHT31;59999;51.676;22.650;2022-10-18T17:53:21;15.10;75.70
72126;SHT31;59999;51.676;22.650;2022-10-18T17:55:59;15.10;75.41
72126;SHT31;59999;51.676;22.650;2022-10-18T17:58:26;15.10;75.53
72126;SHT31;59999;51.676;22.650;2022-10-18T18:00:52;15.13;75.46
72126;SHT31;59999;51.676;22.650;2022-10-18T18:03:19;15.16;75.42
72126;SHT31;59999;51.676;22.650;2022-10-18T18:05:45;15.12;75.48
72126;SHT31;59999;51.676;22.650;2022-10-18T18:08:13;15.14;75.53
72126;SHT31;59999;51.676;22.650;2022-10-18T18:10:39;15.14;75.61
72126;SHT31;59999;51.676;22.650;2022-10-18T18:13:05;15.13;75.53
72126;SHT31;59999;51.676;22.650;2022-10-18T18:15:31;15.13;75.69